sensor_id;sensor_type;location;lat;lon;timestamp;pressure;altitude;pressure_sealevel;temperature;humidity
49827;BME280;35715;51.570;6.036;2023-11-21T00:02:08;100935.50;;;10.10;99.53
49827;BME280;35715;51.570;6.036;2023-11-21T00:04:34;100929.47;;;10.10;99.51
49827;BME280;35715;51.570;6.036;2023-11-21T00:06:59;100926.19;;;10.12;99.88
49827;BME280;35715;51.570;6.036;2023-11-21T00:09:24;100926.28;;;10.14;100.00
49827;BME280;35715;51.570;6.036;2023-11-21T00:11:50;100930.78;;;10.17;100.00
49827;BME280;35715;51.570;6.036;2023-11-21T00:14:17;100936.16;;;10.20;100.00
49827;BME280;35715;51.570;6.036;2023-11-21T00:16:43;100943.88;;;10.20;100.00
49827;BME280;35715;51.570;6.036;2023-11-21T00:19:08;100945.59;;;10.19;100.00
49827;BME280;35715;51.570;6.036;2023-11-21T00:21:34;100937.03;;;10.20;100.00
49827;BME280;35715;51.570;6.036;2023-11-21T00:23:59;100931.88;;;10.20;100.00
49827;BME280;35715;51.570;6.036;2023-11-21T00:26:24;100943.22;;;10.22;100.00
49827;BME280;35715;51.570;6.036;2023-11-21T00:28:50;100937.34;;;10.25;100.00
49827;BME280;35715;51.570;6.036;2023-11-21T00:31:16;100948.59;;;10.25;100.00
49827;BME280;35715;51.570;6.036;2023-11-21T00:33:41;100940.84;;;10.25;100.00
49827;BME280;35715;51.570;6.036;2023-11-21T00:36:07;100939.16;;;10.26;100.00
49827;BME280;35715;51.570;6.036;2023-11-21T00:38:35;100934.00;;;10.26;100.00
49827;BME280;35715;51.570;6.036;2023-11-21T00:41:00;100945.22;;;10.26;100.00
49827;BME280;35715;51.570;6.036;2023-11-21T00:43:26;100939.94;;;10.25;100.00
49827;BME280;35715;51.570;6.036;2023-11-21T00:45:54;100940.84;;;10.25;100.00
49827;BME280;35715;51.570;6.036;2023-11-21T00:48:19;100946.00;;;10.25;100.00
49827;BME280;35715;51.570;6.036;2023-11-21T00:50:45;100940.84;;;10.25;100.00
49827;BME280;35715;51.570;6.036;2023-11-21T00:53:10;100947.91;;;10.28;100.00
49827;BME280;35715;51.570;6.036;2023-11-21T00:55:36;100947.22;;;10.30;100.00
49827;BME280;35715;51.570;6.036;2023-11-21T00:58:02;100943.75;;;10.30;100.00
49827;BME280;35715;51.570;6.036;2023-11-21T01:00:29;100951.50;;;10.30;100.00
49827;BME280;35715;51.570;6.036;2023-11-21T01:02:54;100945.34;;;10.28;100.00
49827;BME280;35715;51.570;6.036;2023-11-21T01:05:20;100946.22;;;10.28;100.00
49827;BME280;35715;51.570;6.036;2023-11-21T01:07:45;100959.22;;;10.30;100.00
49827;BME280;35715;51.570;6.036;2023-11-21T01:10:11;100962.69;;;10.30;100.00
49827;BME280;35715;51.570;6.036;2023-11-21T01:12:37;100970.53;;;10.32;100.00
49827;BME280;35715;51.570;6.036;2023-11-21T01:15:04;100970.53;;;10.32;100.00
49827;BME280;35715;51.570;6.036;2023-11-21T01:17:32;100970.53;;;10.32;100.00
49827;BME280;35715;51.570;6.036;2023-11-21T01:19:59;100981.91;;;10.34;100.00
49827;BME280;35715;51.570;6.036;2023-11-21T01:22:25;100978.53;;;10.35;100.00
49827;BME280;35715;51.570;6.036;2023-11-21T01:24:52;100973.47;;;10.37;100.00
49827;BME280;35715;51.570;6.036;2023-11-21T01:27:18;100988.16;;;10.38;100.00
49827;BME280;35715;51.570;6.036;2023-11-21T01:29:43;100987.28;;;10.37;100.00
49827;BME280;35715;51.570;6.036;2023-11-21T01:32:09;100988.84;;;10.35;100.00
49827;BME280;35715;51.570;6.036;2023-11-21T01:34:35;100994.81;;;10.34;100.00
49827;BME280;35715;51.570;6.036;2023-11-21T01:37:03;101005.91;;;10.33;100.00
49827;BME280;35715;51.570;6.036;2023-11-21T01:39:30;100995.34;;;10.30;100.00
49827;BME280;35715;51.570;6.036;2023-11-21T01:41:57;101002.41;;;10.33;100.00
49827;BME280;35715;51.570;6.036;2023-11-21T01:44:26;100999.72;;;10.31;100.00
49827;BME280;35715;51.570;6.036;2023-11-21T01:46:52;101003.31;;;10.33;100.00
49827;BME280;35715;51.570;6.036;2023-11-21T01:49:18;101007.56;;;10.33;100.00
49827;BME280;35715;51.570;6.036;2023-11-21T01:51:49;101009.22;;;10.32;100.00
49827;BME280;35715;51.570;6.036;2023-11-21T01:54:21;101008.34;;;10.32;100.00
49827;BME280;35715;51.570;6.036;2023-11-21T01:56:47;101010.03;;;10.31;100.00
49827;BME280;35715;51.570;6.036;2023-11-21T01:59:14;101013.28;;;10.28;100.00
49827;BME280;35715;51.570;6.036;2023-11-21T02:01:43;101005.53;;;10.28;100.00
49827;BME280;35715;51.570;6.036;2023-11-21T02:04:09;101007.25;;;10.28;100.00
49827;BME280;35715;51.570;6.036;2023-11-21T02:06:35;101005.31;;;10.25;100.00
49827;BME280;35715;51.570;6.036;2023-11-21T02:09:00;101006.97;;;10.25;100.00
49827;BME280;35715;51.570;6.036;2023-11-21T02:11:25;101010.38;;;10.24;100.00
49827;BME280;35715;51.570;6.036;2023-11-21T02:13:53;101010.47;;;10.25;100.00
49827;BME280;35715;51.570;6.036;2023-11-21T02:16:19;101006.09;;;10.24;100.00
49827;BME280;35715;51.570;6.036;2023-11-21T02:18:47;101013.06;;;10.25;100.00
49827;BME280;35715;51.570;6.036;2023-11-21T02:21:14;101010.59;;;10.27;100.00
49827;BME280;35715;51.570;6.036;2023-11-21T02:23:40;101014.97;;;10.28;100.00
49827;BME280;35715;51.570;6.036;2023-11-21T02:26:09;101020.91;;;10.27;100.00
49827;BME280;35715;51.570;6.036;2023-11-21T02:28:35;101016.63;;;10.27;100.00
49827;BME280;35715;51.570;6.036;2023-11-21T02:31:00;101021.91;;;10.29;100.00
49827;BME280;35715;51.570;6.036;2023-11-21T02:33:28;101025.41;;;10.29;100.00
49827;BME280;35715;51.570;6.036;2023-11-21T02:35:53;101022.72;;;10.28;100.00
49827;BME280;35715;51.570;6.036;2023-11-21T02:38:20;101031.44;;;10.30;100.00
49827;BME280;35715;51.570;6.036;2023-11-21T02:40:45;101030.56;;;10.29;100.00
49827;BME280;35715;51.570;6.036;2023-11-21T02:43:11;101028.88;;;10.30;100.00
49827;BME280;35715;51.570;6.036;2023-11-21T02:45:36;101035.72;;;10.29;100.00
49827;BME280;35715;51.570;6.036;2023-11-21T02:48:02;101033.91;;;10.28;100.00
49827;BME280;35715;51.570;6.036;2023-11-21T02:50:27;101033.03;;;10.28;100.00
49827;BME280;35715;51.570;6.036;2023-11-21T02:52:53;101028.44;;;10.24;100.00
49827;BME280;35715;51.570;6.036;2023-11-21T02:55:18;101032.56;;;10.22;100.00
49827;BME280;35715;51.570;6.036;2023-11-21T02:57:44;101031.34;;;10.17;100.00
49827;BME280;35715;51.570;6.036;2023-11-21T03:00:09;101031.13;;;10.13;100.00
49827;BME280;35715;51.570;6.036;2023-11-21T03:02:38;101037.16;;;10.14;100.00
49827;BME280;35715;51.570;6.036;2023-11-21T03:05:07;101043.22;;;10.15;100.00
49827;BME280;35715;51.570;6.036;2023-11-21T03:07:34;101037.28;;;10.16;100.00
49827;BME280;35715;51.570;6.036;2023-11-21T03:09:59;101037.97;;;10.13;100.00
49827;BME280;35715;51.570;6.036;2023-11-21T03:12:24;101044.78;;;10.12;100.00
49827;BME280;35715;51.570;6.036;2023-11-21T03:14:50;101051.63;;;10.12;100.00
49827;BME280;35715;51.570;6.036;2023-11-21T03:17:16;101052.41;;;10.11;100.00
49827;BME280;35715;51.570;6.036;2023-11-21T03:19:41;101049.72;;;10.09;100.00
49827;BME280;35715;51.570;6.036;2023-11-21T03:22:07;101043.69;;;10.09;100.00
49827;BME280;35715;51.570;6.036;2023-11-21T03:24:36;101047.03;;;10.08;100.00
49827;BME280;35715;51.570;6.036;2023-11-21T03:27:02;101047.94;;;10.08;100.00
49827;BME280;35715;51.570;6.036;2023-11-21T03:29:27;101049.72;;;10.09;100.00
49827;BME280;35715;51.570;6.036;2023-11-21T03:31:53;101054.88;;;10.09;100.00
49827;BME280;35715;51.570;6.036;2023-11-21T03:34:26;101055.91;;;10.11;100.00
49827;BME280;35715;51.570;6.036;2023-11-21T03:36:51;101059.25;;;10.10;100.00
49827;BME280;35715;51.570;6.036;2023-11-21T03:39:17;101059.03;;;10.07;100.00
49827;BME280;35715;51.570;6.036;2023-11-21T03:41:43;101057.22;;;10.06;100.00
49827;BME280;35715;51.570;6.036;2023-11-21T03:44:08;101067.53;;;10.06;100.00
49827;BME280;35715;51.570;6.036;2023-11-21T03:46:33;101067.78;;;10.09;100.00
49827;BME280;35715;51.570;6.036;2023-11-21T03:48:59;101072.69;;;10.06;100.00
49827;BME280;35715;51.570;6.036;2023-11-21T03:51:24;101073.63;;;10.07;100.00
49827;BME280;35715;51.570;6.036;2023-11-21T03:53:49;101076.19;;;10.07;100.00
49827;BME280;35715;51.570;6.036;2023-11-21T03:56:18;101079.44;;;10.04;100.00
49827;BME280;35715;51.570;6.036;2023-11-21T03:58:43;101069.69;;;10.00;100.00
49827;BME280;35715;51.570;6.036;2023-11-21T04:01:08;101085.25;;;10.02;100.00
49827;BME280;35715;51.570;6.036;2023-11-21T04:03:36;101073.84;;;9.98;100.00
49827;BME280;35715;51.570;6.036;2023-11-21T04:06:02;101073.84;;;9.98;100.00
49827;BME280;35715;51.570;6.036;2023-11-21T04:08:27;101068.69;;;9.98;100.00
49827;BME280;35715;51.570;6.036;2023-11-21T04:10:52;101071.16;;;9.97;100.00
49827;BME280;35715;51.570;6.036;2023-11-21T04:13:19;101081.56;;;9.98;100.00
49827;BME280;35715;51.570;6.036;2023-11-21T04:15:44;101077.28;;;9.99;100.00
49827;BME280;35715;51.570;6.036;2023-11-21T04:18:09;101082.44;;;9.99;100.00
49827;BME280;35715;51.570;6.036;2023-11-21T04:20:35;101084.38;;;10.01;100.00
49827;BME280;35715;51.570;6.036;2023-11-21T04:23:00;101092.88;;;10.00;100.00
49827;BME280;35715;51.570;6.036;2023-11-21T04:25:26;101098.91;;;10.01;100.00
49827;BME280;35715;51.570;6.036;2023-11-21T04:27:52;101093.00;;;10.02;100.00
49827;BME280;35715;51.570;6.036;2023-11-21T04:30:18;101101.63;;;10.02;100.00
49827;BME280;35715;51.570;6.036;2023-11-21T04:32:43;101104.06;;;10.01;100.00
49827;BME280;35715;51.570;6.036;2023-11-21T04:35:08;101113.50;;;10.00;100.00
49827;BME280;35715;51.570;6.036;2023-11-21T04:37:34;101120.22;;;9.98;100.00
49827;BME280;35715;51.570;6.036;2023-11-21T04:40:03;101125.38;;;9.98;100.00
49827;BME280;35715;51.570;6.036;2023-11-21T04:42:38;101117.53;;;9.97;100.00
49827;BME280;35715;51.570;6.036;2023-11-21T04:45:05;101126.03;;;9.95;100.00
49827;BME280;35715;51.570;6.036;2023-11-21T04:47:33;101129.41;;;9.94;100.00
49827;BME280;35715;51.570;6.036;2023-11-21T04:50:04;101125.94;;;9.94;100.00
49827;BME280;35715;51.570;6.036;2023-11-21T04:52:31;101131.84;;;9.93;100.00
49827;BME280;35715;51.570;6.036;2023-11-21T04:54:57;101139.59;;;9.93;100.00
49827;BME280;35715;51.570;6.036;2023-11-21T04:57:24;101135.91;;;9.89;100.00
49827;BME280;35715;51.570;6.036;2023-11-21T04:59:49;101136.66;;;9.88;100.00
49827;BME280;35715;51.570;6.036;2023-11-21T05:02:15;101135.78;;;9.88;100.00
49827;BME280;35715;51.570;6.036;2023-11-21T05:04:41;101135.78;;;9.88;100.00
49827;BME280;35715;51.570;6.036;2023-11-21T05:07:08;101136.44;;;9.85;100.00
49827;BME280;35715;51.570;6.036;2023-11-21T05:09:33;101146.63;;;9.84;100.00
49827;BME280;35715;51.570;6.036;2023-11-21T05:11:59;101155.19;;;9.83;100.00
49827;BME280;35715;51.570;6.036;2023-11-21T05:14:25;101150.03;;;9.83;100.00
49827;BME280;35715;51.570;6.036;2023-11-21T05:16:50;101152.59;;;9.83;100.00
49827;BME280;35715;51.570;6.036;2023-11-21T05:19:17;101155.94;;;9.82;100.00
49827;BME280;35715;51.570;6.036;2023-11-21T05:21:42;101164.44;;;9.81;100.00
49827;BME280;35715;51.570;6.036;2023-11-21T05:24:11;101163.44;;;9.79;100.00
49827;BME280;35715;51.570;6.036;2023-11-21T05:26:36;101163.44;;;9.79;100.00
49827;BME280;35715;51.570;6.036;2023-11-21T05:29:02;101169.47;;;9.79;100.00
49827;BME280;35715;51.570;6.036;2023-11-21T05:31:27;101174.53;;;9.77;100.00
49827;BME280;35715;51.570;6.036;2023-11-21T05:33:53;101173.75;;;9.79;100.00
49827;BME280;35715;51.570;6.036;2023-11-21T05:36:27;101174.41;;;9.76;100.00
49827;BME280;35715;51.570;6.036;2023-11-21T05:38:53;101173.63;;;9.77;100.00
49827;BME280;35715;51.570;6.036;2023-11-21T05:41:18;101180.59;;;9.78;100.00
49827;BME280;35715;51.570;6.036;2023-11-21T05:43:44;101180.38;;;9.75;100.00
49827;BME280;35715;51.570;6.036;2023-11-21T05:46:09;101175.97;;;9.74;100.00
49827;BME280;35715;51.570;6.036;2023-11-21T05:48:34;101186.28;;;9.74;100.00
49827;BME280;35715;51.570;6.036;2023-11-21T05:51:04;101187.72;;;9.70;100.00
49827;BME280;35715;51.570;6.036;2023-11-21T05:53:29;101188.63;;;9.71;100.00
49827;BME280;35715;51.570;6.036;2023-11-21T05:55:55;101191.09;;;9.69;100.00
49827;BME280;35715;51.570;6.036;2023-11-21T05:58:23;101183.38;;;9.69;100.00
49827;BME280;35715;51.570;6.036;2023-11-21T06:00:49;101189.06;;;9.65;100.00
49827;BME280;35715;51.570;6.036;2023-11-21T06:03:14;101191.50;;;9.64;100.00
49827;BME280;35715;51.570;6.036;2023-11-21T06:05:39;101195.78;;;9.63;100.00
49827;BME280;35715;51.570;6.036;2023-11-21T06:08:05;101198.34;;;9.63;100.00
49827;BME280;35715;51.570;6.036;2023-11-21T06:10:31;101203.50;;;9.63;100.00
49827;BME280;35715;51.570;6.036;2023-11-21T06:12:57;101206.97;;;9.64;100.00
49827;BME280;35715;51.570;6.036;2023-11-21T06:15:23;101212.88;;;9.63;100.00
49827;BME280;35715;51.570;6.036;2023-11-21T06:17:48;101220.72;;;9.64;100.00
49827;BME280;35715;51.570;6.036;2023-11-21T06:20:20;101228.59;;;9.66;100.00
49827;BME280;35715;51.570;6.036;2023-11-21T06:22:48;101226.13;;;9.67;100.00
49827;BME280;35715;51.570;6.036;2023-11-21T06:25:15;101221.22;;;9.70;100.00
49827;BME280;35715;51.570;6.036;2023-11-21T06:27:45;101232.66;;;9.74;100.00
49827;BME280;35715;51.570;6.036;2023-11-21T06:30:12;101236.91;;;9.73;100.00
49827;BME280;35715;51.570;6.036;2023-11-21T06:32:39;101232.66;;;9.74;100.00
49827;BME280;35715;51.570;6.036;2023-11-21T06:35:08;101230.97;;;9.74;100.00
49827;BME280;35715;51.570;6.036;2023-11-21T06:37:36;101240.53;;;9.75;100.00
49827;BME280;35715;51.570;6.036;2023-11-21T06:40:01;101249.13;;;9.76;100.00
49827;BME280;35715;51.570;6.036;2023-11-21T06:42:29;101249.13;;;9.76;100.00
49827;BME280;35715;51.570;6.036;2023-11-21T06:44:54;101256.97;;;9.77;100.00
49827;BME280;35715;51.570;6.036;2023-11-21T06:47:25;101258.66;;;9.77;100.00
49827;BME280;35715;51.570;6.036;2023-11-21T06:49:51;101254.28;;;9.76;100.00
49827;BME280;35715;51.570;6.036;2023-11-21T06:52:17;101261.13;;;9.75;100.00
49827;BME280;35715;51.570;6.036;2023-11-21T06:54:43;101255.88;;;9.74;100.00
49827;BME280;35715;51.570;6.036;2023-11-21T06:57:09;101255.88;;;9.74;100.00
49827;BME280;35715;51.570;6.036;2023-11-21T06:59:34;101266.94;;;9.73;100.00
49827;BME280;35715;51.570;6.036;2023-11-21T07:01:59;101267.81;;;9.73;100.00
49827;BME280;35715;51.570;6.036;2023-11-21T07:04:30;101272.84;;;9.72;100.00
49827;BME280;35715;51.570;6.036;2023-11-21T07:06:55;101269.41;;;9.71;100.00
49827;BME280;35715;51.570;6.036;2023-11-21T07:09:21;101278.13;;;9.73;100.00
49827;BME280;35715;51.570;6.036;2023-11-21T07:11:53;101280.88;;;9.75;100.00
49827;BME280;35715;51.570;6.036;2023-11-21T07:14:19;101284.44;;;9.77;100.00
49827;BME280;35715;51.570;6.036;2023-11-21T07:16:45;101287.78;;;9.76;100.00
49827;BME280;35715;51.570;6.036;2023-11-21T07:19:10;101293.88;;;9.76;100.00
49827;BME280;35715;51.570;6.036;2023-11-21T07:21:37;101294.09;;;9.80;100.00
49827;BME280;35715;51.570;6.036;2023-11-21T07:24:03;101301.03;;;9.81;100.00
49827;BME280;35715;51.570;6.036;2023-11-21T07:26:30;101305.41;;;9.82;100.00
49827;BME280;35715;51.570;6.036;2023-11-21T07:28:56;101303.50;;;9.79;100.00
49827;BME280;35715;51.570;6.036;2023-11-21T07:31:22;101312.25;;;9.81;100.00
49827;BME280;35715;51.570;6.036;2023-11-21T07:33:47;101316.72;;;9.84;100.00
49827;BME280;35715;51.570;6.036;2023-11-21T07:36:14;101322.94;;;9.86;100.00
49827;BME280;35715;51.570;6.036;2023-11-21T07:38:42;101325.50;;;9.86;100.00
49827;BME280;35715;51.570;6.036;2023-11-21T07:41:07;101334.25;;;9.88;100.00
49827;BME280;35715;51.570;6.036;2023-11-21T07:43:34;101333.59;;;9.90;100.00
49827;BME280;35715;51.570;6.036;2023-11-21T07:46:04;101338.75;;;9.90;100.00
49827;BME280;35715;51.570;6.036;2023-11-21T07:48:36;101344.78;;;9.91;100.00
49827;BME280;35715;51.570;6.036;2023-11-21T07:51:02;101342.22;;;9.91;100.00
49827;BME280;35715;51.570;6.036;2023-11-21T07:53:30;101340.53;;;9.91;100.00
49827;BME280;35715;51.570;6.036;2023-11-21T07:55:56;101347.50;;;9.92;100.00
49827;BME280;35715;51.570;6.036;2023-11-21T07:58:22;101347.72;;;9.95;100.00
49827;BME280;35715;51.570;6.036;2023-11-21T08:00:49;101352.88;;;9.95;100.00
49827;BME280;35715;51.570;6.036;2023-11-21T08:03:14;101355.22;;;9.92;100.00
49827;BME280;35715;51.570;6.036;2023-11-21T08:05:43;101355.09;;;9.91;100.00
49827;BME280;35715;51.570;6.036;2023-11-21T08:08:08;101363.59;;;9.90;100.00
49827;BME280;35715;51.570;6.036;2023-11-21T08:10:34;101365.41;;;9.91;100.00
49827;BME280;35715;51.570;6.036;2023-11-21T08:13:01;101367.22;;;9.92;100.00
49827;BME280;35715;51.570;6.036;2023-11-21T08:15:26;101373.38;;;9.94;100.00
49827;BME280;35715;51.570;6.036;2023-11-21T08:17:52;101375.31;;;9.97;100.00
49827;BME280;35715;51.570;6.036;2023-11-21T08:20:17;101382.25;;;9.98;100.00
49827;BME280;35715;51.570;6.036;2023-11-21T08:22:44;101382.38;;;9.99;100.00
49827;BME280;35715;51.570;6.036;2023-11-21T08:25:09;101386.22;;;10.04;100.00
49827;BME280;35715;51.570;6.036;2023-11-21T08:27:35;101388.81;;;10.04;100.00
49827;BME280;35715;51.570;6.036;2023-11-21T08:30:02;101396.41;;;10.03;100.00
49827;BME280;35715;51.570;6.036;2023-11-21T08:32:28;101391.25;;;10.03;100.00
49827;BME280;35715;51.570;6.036;2023-11-21T08:34:55;101400.41;;;9.99;100.00
49827;BME280;35715;51.570;6.036;2023-11-21T08:37:20;101388.50;;;9.89;100.00
49827;BME280;35715;51.570;6.036;2023-11-21T08:39:47;101394.00;;;9.94;100.00
49827;BME280;35715;51.570;6.036;2023-11-21T08:42:15;101394.78;;;9.93;100.00
49827;BME280;35715;51.570;6.036;2023-11-21T08:44:41;101398.16;;;9.92;100.00
49827;BME280;35715;51.570;6.036;2023-11-21T08:47:06;101397.22;;;9.91;100.00
49827;BME280;35715;51.570;6.036;2023-11-21T08:49:32;101404.19;;;9.92;100.00
49827;BME280;35715;51.570;6.036;2023-11-21T08:51:57;101402.63;;;9.94;100.00
49827;BME280;35715;51.570;6.036;2023-11-21T08:54:25;101403.91;;;10.00;100.00
49827;BME280;35715;51.570;6.036;2023-11-21T08:56:51;101407.84;;;10.06;100.00
49827;BME280;35715;51.570;6.036;2023-11-21T08:59:16;101418.41;;;10.09;100.00
49827;BME280;35715;51.570;6.036;2023-11-21T09:01:42;101424.72;;;10.13;100.00
49827;BME280;35715;51.570;6.036;2023-11-21T09:04:07;101419.81;;;10.16;100.00
49827;BME280;35715;51.570;6.036;2023-11-21T09:06:33;101426.88;;;10.19;100.00
49827;BME280;35715;51.570;6.036;2023-11-21T09:08:58;101429.56;;;10.20;100.00
49827;BME280;35715;51.570;6.036;2023-11-21T09:11:24;101429.91;;;10.25;100.00
49827;BME280;35715;51.570;6.036;2023-11-21T09:13:50;101429.91;;;10.25;100.00
49827;BME280;35715;51.570;6.036;2023-11-21T09:16:16;101437.13;;;10.29;100.00
49827;BME280;35715;51.570;6.036;2023-11-21T09:18:42;101439.22;;;10.33;100.00
49827;BME280;35715;51.570;6.036;2023-11-21T09:21:07;101438.69;;;10.37;100.00
49827;BME280;35715;51.570;6.036;2023-11-21T09:23:34;101451.81;;;10.40;100.00
49827;BME280;35715;51.570;6.036;2023-11-21T09:25:59;101448.44;;;10.41;100.00
49827;BME280;35715;51.570;6.036;2023-11-21T09:28:28;101450.25;;;10.42;100.00
49827;BME280;35715;51.570;6.036;2023-11-21T09:30:54;101450.38;;;10.44;100.00
49827;BME280;35715;51.570;6.036;2023-11-21T09:33:19;101447.91;;;10.45;100.00
49827;BME280;35715;51.570;6.036;2023-11-21T09:35:45;101452.75;;;10.53;100.00
49827;BME280;35715;51.570;6.036;2023-11-21T09:38:11;101444.72;;;10.60;100.00
49827;BME280;35715;51.570;6.036;2023-11-21T09:40:37;101449.56;;;10.67;100.00
49827;BME280;35715;51.570;6.036;2023-11-21T09:43:12;101465.63;;;10.75;100.00
49827;BME280;35715;51.570;6.036;2023-11-21T09:45:44;101463.78;;;10.84;100.00
49827;BME280;35715;51.570;6.036;2023-11-21T09:48:10;101464.34;;;10.92;100.00
49827;BME280;35715;51.570;6.036;2023-11-21T09:50:37;101467.28;;;10.96;100.00
49827;BME280;35715;51.570;6.036;2023-11-21T09:53:19;101475.25;;;10.99;100.00
49827;BME280;35715;51.570;6.036;2023-11-21T09:55:51;101468.63;;;11.03;100.00
49827;BME280;35715;51.570;6.036;2023-11-21T09:58:17;101471.56;;;11.08;100.00
49827;BME280;35715;51.570;6.036;2023-11-21T10:00:48;101470.47;;;11.16;100.00
49827;BME280;35715;51.570;6.036;2023-11-21T10:03:14;101480.69;;;11.14;100.00
49827;BME280;35715;51.570;6.036;2023-11-21T10:05:42;101488.56;;;11.16;100.00
49827;BME280;35715;51.570;6.036;2023-11-21T10:08:10;101491.81;;;11.13;100.00
49827;BME280;35715;51.570;6.036;2023-11-21T10:10:36;101492.47;;;11.11;100.00
49827;BME280;35715;51.570;6.036;2023-11-21T10:13:06;101497.75;;;11.12;100.00
49827;BME280;35715;51.570;6.036;2023-11-21T10:15:40;101498.53;;;11.11;100.00
49827;BME280;35715;51.570;6.036;2023-11-21T10:18:09;101505.38;;;11.11;100.00
49827;BME280;35715;51.570;6.036;2023-11-21T10:20:35;101505.78;;;11.05;100.00
49827;BME280;35715;51.570;6.036;2023-11-21T10:23:03;101513.41;;;11.04;100.00
49827;BME280;35715;51.570;6.036;2023-11-21T10:25:28;101512.00;;;11.07;100.00
49827;BME280;35715;51.570;6.036;2023-11-21T10:27:59;101510.97;;;11.05;100.00
49827;BME280;35715;51.570;6.036;2023-11-21T10:30:34;101521.06;;;11.02;100.00
49827;BME280;35715;51.570;6.036;2023-11-21T10:33:04;101521.75;;;10.99;100.00
49827;BME280;35715;51.570;6.036;2023-11-21T10:35:59;101528.44;;;10.97;100.00
49827;BME280;35715;51.570;6.036;2023-11-21T10:38:26;101528.03;;;11.03;100.00
49827;BME280;35715;51.570;6.036;2023-11-21T10:40:53;101526.34;;;11.04;100.00
49827;BME280;35715;51.570;6.036;2023-11-21T10:43:20;101529.97;;;11.06;100.00
49827;BME280;35715;51.570;6.036;2023-11-21T10:45:49;101534.59;;;11.10;100.00
49827;BME280;35715;51.570;6.036;2023-11-21T10:48:15;101532.88;;;11.10;100.00
49827;BME280;35715;51.570;6.036;2023-11-21T10:50:45;101533.91;;;11.12;100.00
49827;BME280;35715;51.570;6.036;2023-11-21T10:53:10;101527.84;;;11.12;100.00
49827;BME280;35715;51.570;6.036;2023-11-21T10:55:37;101530.78;;;11.16;100.00
49827;BME280;35715;51.570;6.036;2023-11-21T10:58:03;101533.94;;;11.24;100.00
49827;BME280;35715;51.570;6.036;2023-11-21T11:00:31;101536.09;;;11.30;100.00
49827;BME280;35715;51.570;6.036;2023-11-21T11:02:56;101539.69;;;11.32;100.00
49827;BME280;35715;51.570;6.036;2023-11-21T11:05:25;101538.25;;;11.35;100.00
49827;BME280;35715;51.570;6.036;2023-11-21T11:08:11;101533.75;;;11.33;100.00
49827;BME280;35715;51.570;6.036;2023-11-21T11:10:45;101533.97;;;11.36;100.00
49827;BME280;35715;51.570;6.036;2023-11-21T11:13:12;101540.16;;;11.38;100.00
49827;BME280;35715;51.570;6.036;2023-11-21T11:15:40;101543.19;;;11.44;100.00
49827;BME280;35715;51.570;6.036;2023-11-21T11:18:06;101544.88;;;11.44;100.00
49827;BME280;35715;51.570;6.036;2023-11-21T11:20:37;101541.28;;;11.42;100.00
49827;BME280;35715;51.570;6.036;2023-11-21T11:23:31;101530.03;;;11.41;100.00
49827;BME280;35715;51.570;6.036;2023-11-21T11:29:02;101535.78;;;11.37;100.00
49827;BME280;35715;51.570;6.036;2023-11-21T11:34:36;101544.06;;;11.33;100.00
49827;BME280;35715;51.570;6.036;2023-11-21T11:37:06;101550.47;;;11.38;100.00
49827;BME280;35715;51.570;6.036;2023-11-21T11:39:35;101549.09;;;11.19;100.00
49827;BME280;35715;51.570;6.036;2023-11-21T11:42:03;101558.19;;;11.26;100.00
49827;BME280;35715;51.570;6.036;2023-11-21T11:44:46;101559.00;;;11.25;100.00
49827;BME280;35715;51.570;6.036;2023-11-21T11:47:34;101563.06;;;11.33;100.00
49827;BME280;35715;51.570;6.036;2023-11-21T11:52:49;101571.34;;;11.29;100.00
49827;BME280;35715;51.570;6.036;2023-11-21T11:55:17;101574.72;;;11.28;100.00
49827;BME280;35715;51.570;6.036;2023-11-21T11:57:51;101580.56;;;11.26;100.00
49827;BME280;35715;51.570;6.036;2023-11-21T12:02:53;101581.38;;;11.36;100.00
49827;BME280;35715;51.570;6.036;2023-11-21T12:05:20;101584.09;;;11.50;100.00
49827;BME280;35715;51.570;6.036;2023-11-21T12:10:18;101600.66;;;11.64;100.00
49827;BME280;35715;51.570;6.036;2023-11-21T12:12:45;101599.88;;;11.65;100.00
49827;BME280;35715;51.570;6.036;2023-11-21T12:15:12;101599.00;;;11.64;100.00
49827;BME280;35715;51.570;6.036;2023-11-21T12:17:39;101607.84;;;11.68;100.00
49827;BME280;35715;51.570;6.036;2023-11-21T12:20:05;101617.19;;;11.66;100.00
49827;BME280;35715;51.570;6.036;2023-11-21T12:22:31;101622.56;;;11.57;100.00
49827;BME280;35715;51.570;6.036;2023-11-21T12:24:57;101632.75;;;11.44;100.00
49827;BME280;35715;51.570;6.036;2023-11-21T12:27:22;101633.41;;;11.41;100.00
49827;BME280;35715;51.570;6.036;2023-11-21T12:29:48;101630.03;;;11.42;100.00
49827;BME280;35715;51.570;6.036;2023-11-21T12:32:13;101634.09;;;11.39;100.00
49827;BME280;35715;51.570;6.036;2023-11-21T12:34:41;101624.41;;;11.36;100.00
49827;BME280;35715;51.570;6.036;2023-11-21T12:37:07;101630.09;;;11.32;100.00
49827;BME280;35715;51.570;6.036;2023-11-21T12:39:32;101626.41;;;11.28;100.00
49827;BME280;35715;51.570;6.036;2023-11-21T12:41:58;101629.75;;;11.27;100.00
49827;BME280;35715;51.570;6.036;2023-11-21T12:44:23;101629.75;;;11.27;100.00
49827;BME280;35715;51.570;6.036;2023-11-21T12:46:49;101628.41;;;11.32;100.00
49827;BME280;35715;51.570;6.036;2023-11-21T12:49:15;101638.31;;;11.38;100.00
49827;BME280;35715;51.570;6.036;2023-11-21T12:51:45;101639.25;;;11.39;100.00
49827;BME280;35715;51.570;6.036;2023-11-21T12:54:14;101631.91;;;11.33;100.00
49827;BME280;35715;51.570;6.036;2023-11-21T12:56:45;101638.91;;;11.34;100.00